Hlavní strana
METAR-TAF:

METAR-TAF

Letiště :

Kaiser Lake Ozark, Missouri, Spojené státy americké

zeměpisná šířka: 38-06N, zeměpisná délka: 092-33W, výška: 265 m

Aktuální stav počasí

Zpráva byla vytvořena před 13 minutami, v 12:56 UTC
Severoseverovýchodní vítr 4 kt
Teplota -2°C
Vlhkost vzduchu 100%
Tlak 1020 hPa
Viditelnost: 4.8 km
Zataženo ve výšce 200 ft
kouřmo

METAR: KAIZ 281256Z AUTO 03004KT 3SM BR OVC002 M02/M02 A3012 RMK AO2 SLP208 T10171022 FZRANO

Čas: 07:09 (13:09 UTC)


TAF: chybějící

Stav a předpovědi počasí z více než 4 000 letišť (zprávy METAR a TAF).

Červené a žluté tečky na mapě představují dostupné meteorologické stanice.

Když kurzor umístíte na tečku, zobrazí se název stanice.

Pak kliknutím zobrazíte stav a předpověď počasí.

Chcete-li změnit mapu, kliknutím na zelené tlačítko se znaménkem +mapu přiblížíte, kliknutím na zelené tlačítko se znaménkem – mapu oddálíte a kliknutím na zelené šipky přejdete na sousední mapy.


METAR-TAF: